National Weather Service United States Department of Commerce

Heavy Rainfall Threat for Southern Plains and Mississippi Valley; Mild Temperatures for the East

Widespread showers and thunderstorms with the risk for flash flooding from the Southern Plains to the Mississippi Valley develops on Tuesday. Moisture tracking into the Pacific Northwest will bring heavy lower elevation/coastal rain and mountain snow. Meanwhile, unseasonably warm temperatures continue for the eastern two-thirds of the country. Read More >

GJT - Grand junction, CO - Terminal Aerodrome Forecast (TAF)

FTUS53 KGJT 070521 RRB
KGJT 070520Z 0706/0806 01004KT P6SM FEW180
     FM071000 07003KT P6SM FEW180
     FM071500 13006KT P6SM SKC
     FM071800 17008KT P6SM SKC
     FM080000 36004KT P6SM SKC

For a printable version click KGJT TAF